Terminal Aerodrome Forecast
Issued by NWS

Home | Current Version | Previous Version | Text Only | Print | Product List | Glossary On
Versions: 1 2 3 4 5 6 7 8 9 10 11 12
000
FTUS42 TJSJ 140527
TAFJBQ
TAF
TJBQ 140527Z 1406/1506 VRB05KT P6SM FEW025 SCT060
     FM141400 08013KT P6SM FEW030
     FM141600 06008KT P6SM VCSH OVC030
     FM142200 09005KT P6SM SCT020 SCT040
      AMD NOT SKED TIL 141100=

USA.gov is the U.S. government's official web portal to all federal, state and local government web resources and services.